sensor_id;sensor_type;location;lat;lon;timestamp;P1;durP1;ratioP1;P2;durP2;ratioP2
64686;SDS011;51113;53.646;-113.674;2022-07-29T00:00:00;15.68;;;2.42;;
64686;SDS011;51113;53.646;-113.674;2022-07-29T00:02:30;16.02;;;2.10;;
64686;SDS011;51113;53.646;-113.674;2022-07-29T00:05:00;9.32;;;2.47;;
64686;SDS011;51113;53.646;-113.674;2022-07-29T00:07:29;27.15;;;2.80;;
64686;SDS011;51113;53.646;-113.674;2022-07-29T00:09:57;7.65;;;2.15;;
64686;SDS011;51113;53.646;-113.674;2022-07-29T00:12:26;16.13;;;2.75;;
64686;SDS011;51113;53.646;-113.674;2022-07-29T00:14:55;14.43;;;2.50;;
64686;SDS011;51113;53.646;-113.674;2022-07-29T00:17:25;8.93;;;2.28;;
64686;SDS011;51113;53.646;-113.674;2022-07-29T00:19:54;12.23;;;2.42;;
64686;SDS011;51113;53.646;-113.674;2022-07-29T00:22:22;7.78;;;2.45;;
64686;SDS011;51113;53.646;-113.674;2022-07-29T00:24:51;15.68;;;2.40;;
64686;SDS011;51113;53.646;-113.674;2022-07-29T00:27:19;9.07;;;2.33;;
64686;SDS011;51113;53.646;-113.674;2022-07-29T00:29:49;12.57;;;2.28;;
64686;SDS011;51113;53.646;-113.674;2022-07-29T00:32:18;11.85;;;2.10;;
64686;SDS011;51113;53.646;-113.674;2022-07-29T00:34:47;12.73;;;2.80;;
64686;SDS011;51113;53.646;-113.674;2022-07-29T00:37:34;6.80;;;2.30;;
64686;SDS011;51113;53.646;-113.674;2022-07-29T00:40:03;13.23;;;2.60;;
64686;SDS011;51113;53.646;-113.674;2022-07-29T00:42:53;12.90;;;2.60;;
64686;SDS011;51113;53.646;-113.674;2022-07-29T00:45:21;12.80;;;2.45;;
64686;SDS011;51113;53.646;-113.674;2022-07-29T00:47:50;15.70;;;2.40;;
64686;SDS011;51113;53.646;-113.674;2022-07-29T00:50:18;15.38;;;2.50;;
64686;SDS011;51113;53.646;-113.674;2022-07-29T00:52:47;18.92;;;2.53;;
64686;SDS011;51113;53.646;-113.674;2022-07-29T00:55:16;6.50;;;2.55;;
64686;SDS011;51113;53.646;-113.674;2022-07-29T00:57:45;5.53;;;2.30;;
64686;SDS011;51113;53.646;-113.674;2022-07-29T01:00:16;12.85;;;2.75;;
64686;SDS011;51113;53.646;-113.674;2022-07-29T01:02:47;11.70;;;3.00;;
64686;SDS011;51113;53.646;-113.674;2022-07-29T01:05:18;12.75;;;2.55;;
64686;SDS011;51113;53.646;-113.674;2022-07-29T01:08:12;12.60;;;2.58;;
64686;SDS011;51113;53.646;-113.674;2022-07-29T01:10:43;8.20;;;2.50;;
64686;SDS011;51113;53.646;-113.674;2022-07-29T01:13:14;10.85;;;2.40;;
64686;SDS011;51113;53.646;-113.674;2022-07-29T01:15:45;11.93;;;2.20;;
64686;SDS011;51113;53.646;-113.674;2022-07-29T01:18:20;8.48;;;2.20;;
64686;SDS011;51113;53.646;-113.674;2022-07-29T01:34:42;7.40;;;2.33;;
64686;SDS011;51113;53.646;-113.674;2022-07-29T01:37:19;7.50;;;2.10;;
64686;SDS011;51113;53.646;-113.674;2022-07-29T01:40:02;12.05;;;2.28;;
64686;SDS011;51113;53.646;-113.674;2022-07-29T01:42:36;12.35;;;2.33;;
64686;SDS011;51113;53.646;-113.674;2022-07-29T01:50:26;10.17;;;2.40;;
64686;SDS011;51113;53.646;-113.674;2022-07-29T01:53:04;13.48;;;2.40;;
64686;SDS011;51113;53.646;-113.674;2022-07-29T01:55:35;9.27;;;2.63;;
64686;SDS011;51113;53.646;-113.674;2022-07-29T01:58:08;17.73;;;2.30;;
64686;SDS011;51113;53.646;-113.674;2022-07-29T02:00:38;10.80;;;2.55;;
64686;SDS011;51113;53.646;-113.674;2022-07-29T02:03:09;11.52;;;2.30;;
64686;SDS011;51113;53.646;-113.674;2022-07-29T02:05:41;13.43;;;2.60;;
64686;SDS011;51113;53.646;-113.674;2022-07-29T02:08:13;10.48;;;2.35;;
64686;SDS011;51113;53.646;-113.674;2022-07-29T02:10:44;9.48;;;2.35;;
64686;SDS011;51113;53.646;-113.674;2022-07-29T02:13:14;10.95;;;2.72;;
64686;SDS011;51113;53.646;-113.674;2022-07-29T02:15:44;17.63;;;2.15;;
64686;SDS011;51113;53.646;-113.674;2022-07-29T02:18:18;10.57;;;2.50;;
64686;SDS011;51113;53.646;-113.674;2022-07-29T02:20:50;6.97;;;2.22;;
64686;SDS011;51113;53.646;-113.674;2022-07-29T02:23:21;21.75;;;2.53;;
64686;SDS011;51113;53.646;-113.674;2022-07-29T02:25:56;8.65;;;2.40;;
64686;SDS011;51113;53.646;-113.674;2022-07-29T02:28:26;7.97;;;2.38;;
64686;SDS011;51113;53.646;-113.674;2022-07-29T02:30:57;13.00;;;2.50;;
64686;SDS011;51113;53.646;-113.674;2022-07-29T02:33:29;22.55;;;2.53;;
64686;SDS011;51113;53.646;-113.674;2022-07-29T02:35:59;17.30;;;2.78;;
64686;SDS011;51113;53.646;-113.674;2022-07-29T02:38:30;18.37;;;3.47;;
64686;SDS011;51113;53.646;-113.674;2022-07-29T02:41:29;16.40;;;2.40;;
64686;SDS011;51113;53.646;-113.674;2022-07-29T02:47:04;9.95;;;2.50;;
64686;SDS011;51113;53.646;-113.674;2022-07-29T02:52:27;12.05;;;2.60;;
64686;SDS011;51113;53.646;-113.674;2022-07-29T02:55:23;19.80;;;2.75;;
64686;SDS011;51113;53.646;-113.674;2022-07-29T02:57:59;13.98;;;2.55;;
64686;SDS011;51113;53.646;-113.674;2022-07-29T03:00:31;16.45;;;2.80;;
64686;SDS011;51113;53.646;-113.674;2022-07-29T03:03:03;15.60;;;2.78;;
64686;SDS011;51113;53.646;-113.674;2022-07-29T03:05:37;11.13;;;2.30;;
64686;SDS011;51113;53.646;-113.674;2022-07-29T03:08:09;7.90;;;2.40;;
64686;SDS011;51113;53.646;-113.674;2022-07-29T03:10:40;11.48;;;2.60;;
64686;SDS011;51113;53.646;-113.674;2022-07-29T03:13:11;12.98;;;2.60;;
64686;SDS011;51113;53.646;-113.674;2022-07-29T03:15:44;13.10;;;2.60;;
64686;SDS011;51113;53.646;-113.674;2022-07-29T03:18:14;19.75;;;2.70;;
64686;SDS011;51113;53.646;-113.674;2022-07-29T03:20:43;15.18;;;2.63;;
64686;SDS011;51113;53.646;-113.674;2022-07-29T03:23:12;9.02;;;2.60;;
64686;SDS011;51113;53.646;-113.674;2022-07-29T03:25:47;19.35;;;2.53;;
64686;SDS011;51113;53.646;-113.674;2022-07-29T03:28:16;11.50;;;2.60;;
64686;SDS011;51113;53.646;-113.674;2022-07-29T03:30:45;16.20;;;2.95;;
64686;SDS011;51113;53.646;-113.674;2022-07-29T03:33:15;11.65;;;2.28;;
64686;SDS011;51113;53.646;-113.674;2022-07-29T03:35:44;11.35;;;2.70;;
64686;SDS011;51113;53.646;-113.674;2022-07-29T03:38:13;14.20;;;2.40;;
64686;SDS011;51113;53.646;-113.674;2022-07-29T03:40:46;12.52;;;2.58;;
64686;SDS011;51113;53.646;-113.674;2022-07-29T03:43:20;11.70;;;2.55;;
64686;SDS011;51113;53.646;-113.674;2022-07-29T03:45:52;14.90;;;2.72;;
64686;SDS011;51113;53.646;-113.674;2022-07-29T03:48:23;10.40;;;2.42;;
64686;SDS011;51113;53.646;-113.674;2022-07-29T03:50:53;13.68;;;2.45;;
64686;SDS011;51113;53.646;-113.674;2022-07-29T03:53:21;19.20;;;2.38;;
64686;SDS011;51113;53.646;-113.674;2022-07-29T03:55:52;11.75;;;2.90;;
64686;SDS011;51113;53.646;-113.674;2022-07-29T03:58:26;14.70;;;2.58;;
64686;SDS011;51113;53.646;-113.674;2022-07-29T04:00:55;14.55;;;2.63;;
64686;SDS011;51113;53.646;-113.674;2022-07-29T04:03:24;13.98;;;2.40;;
64686;SDS011;51113;53.646;-113.674;2022-07-29T04:06:03;18.88;;;3.10;;
64686;SDS011;51113;53.646;-113.674;2022-07-29T04:11:04;16.50;;;2.25;;
64686;SDS011;51113;53.646;-113.674;2022-07-29T04:13:33;11.05;;;2.72;;
64686;SDS011;51113;53.646;-113.674;2022-07-29T04:16:02;12.75;;;2.60;;
64686;SDS011;51113;53.646;-113.674;2022-07-29T04:18:31;14.88;;;2.30;;
64686;SDS011;51113;53.646;-113.674;2022-07-29T04:21:00;16.90;;;2.75;;
64686;SDS011;51113;53.646;-113.674;2022-07-29T04:23:29;29.75;;;2.72;;
64686;SDS011;51113;53.646;-113.674;2022-07-29T04:26:18;10.90;;;2.20;;
64686;SDS011;51113;53.646;-113.674;2022-07-29T04:28:48;15.50;;;2.55;;
64686;SDS011;51113;53.646;-113.674;2022-07-29T04:31:16;14.15;;;2.92;;
64686;SDS011;51113;53.646;-113.674;2022-07-29T04:33:51;10.35;;;2.38;;
64686;SDS011;51113;53.646;-113.674;2022-07-29T04:36:19;20.13;;;2.58;;
64686;SDS011;51113;53.646;-113.674;2022-07-29T04:38:56;18.95;;;2.95;;
64686;SDS011;51113;53.646;-113.674;2022-07-29T04:41:25;19.92;;;2.70;;
64686;SDS011;51113;53.646;-113.674;2022-07-29T04:43:59;10.75;;;2.70;;
64686;SDS011;51113;53.646;-113.674;2022-07-29T04:46:34;15.73;;;3.08;;
64686;SDS011;51113;53.646;-113.674;2022-07-29T04:49:03;11.10;;;2.80;;
64686;SDS011;51113;53.646;-113.674;2022-07-29T04:51:32;15.90;;;2.97;;
64686;SDS011;51113;53.646;-113.674;2022-07-29T04:54:01;17.98;;;2.50;;
64686;SDS011;51113;53.646;-113.674;2022-07-29T04:56:29;13.40;;;2.65;;
64686;SDS011;51113;53.646;-113.674;2022-07-29T04:58:58;12.70;;;2.92;;
64686;SDS011;51113;53.646;-113.674;2022-07-29T05:01:26;8.65;;;2.45;;
64686;SDS011;51113;53.646;-113.674;2022-07-29T05:03:55;14.18;;;2.90;;
64686;SDS011;51113;53.646;-113.674;2022-07-29T05:06:26;10.82;;;2.67;;
64686;SDS011;51113;53.646;-113.674;2022-07-29T05:08:55;22.23;;;3.40;;
64686;SDS011;51113;53.646;-113.674;2022-07-29T05:11:23;16.55;;;2.95;;
64686;SDS011;51113;53.646;-113.674;2022-07-29T05:13:55;22.40;;;3.20;;
64686;SDS011;51113;53.646;-113.674;2022-07-29T05:16:24;17.88;;;3.08;;
64686;SDS011;51113;53.646;-113.674;2022-07-29T05:18:53;19.80;;;2.92;;
64686;SDS011;51113;53.646;-113.674;2022-07-29T05:21:21;9.63;;;2.55;;
64686;SDS011;51113;53.646;-113.674;2022-07-29T05:23:50;13.00;;;2.90;;
64686;SDS011;51113;53.646;-113.674;2022-07-29T05:26:18;16.25;;;2.88;;
64686;SDS011;51113;53.646;-113.674;2022-07-29T05:28:47;9.85;;;2.47;;
64686;SDS011;51113;53.646;-113.674;2022-07-29T05:31:16;19.02;;;2.85;;
64686;SDS011;51113;53.646;-113.674;2022-07-29T05:33:45;15.38;;;2.70;;
64686;SDS011;51113;53.646;-113.674;2022-07-29T05:36:13;16.17;;;2.92;;
64686;SDS011;51113;53.646;-113.674;2022-07-29T05:38:42;13.05;;;3.17;;
64686;SDS011;51113;53.646;-113.674;2022-07-29T05:41:11;16.27;;;2.60;;
64686;SDS011;51113;53.646;-113.674;2022-07-29T05:43:39;16.60;;;4.60;;
64686;SDS011;51113;53.646;-113.674;2022-07-29T05:46:08;16.33;;;2.78;;
64686;SDS011;51113;53.646;-113.674;2022-07-29T05:48:36;23.25;;;3.00;;
64686;SDS011;51113;53.646;-113.674;2022-07-29T05:51:06;17.95;;;3.63;;
64686;SDS011;51113;53.646;-113.674;2022-07-29T05:53:34;27.05;;;3.45;;
64686;SDS011;51113;53.646;-113.674;2022-07-29T05:56:03;15.88;;;3.22;;
64686;SDS011;51113;53.646;-113.674;2022-07-29T05:58:33;10.90;;;2.90;;
64686;SDS011;51113;53.646;-113.674;2022-07-29T06:01:01;9.57;;;2.85;;
64686;SDS011;51113;53.646;-113.674;2022-07-29T06:03:30;15.95;;;3.17;;
64686;SDS011;51113;53.646;-113.674;2022-07-29T06:05:59;10.95;;;2.85;;
64686;SDS011;51113;53.646;-113.674;2022-07-29T06:08:28;11.68;;;2.85;;
64686;SDS011;51113;53.646;-113.674;2022-07-29T06:10:57;14.10;;;3.22;;
64686;SDS011;51113;53.646;-113.674;2022-07-29T06:13:25;18.42;;;4.30;;
64686;SDS011;51113;53.646;-113.674;2022-07-29T06:15:54;22.48;;;3.38;;
64686;SDS011;51113;53.646;-113.674;2022-07-29T06:18:22;18.45;;;2.78;;
64686;SDS011;51113;53.646;-113.674;2022-07-29T06:20:52;18.40;;;3.47;;
64686;SDS011;51113;53.646;-113.674;2022-07-29T06:23:21;11.30;;;2.80;;
64686;SDS011;51113;53.646;-113.674;2022-07-29T06:25:50;14.80;;;4.60;;
64686;SDS011;51113;53.646;-113.674;2022-07-29T06:28:18;16.48;;;3.17;;
64686;SDS011;51113;53.646;-113.674;2022-07-29T06:30:47;18.02;;;2.70;;
64686;SDS011;51113;53.646;-113.674;2022-07-29T06:33:16;11.68;;;3.35;;
64686;SDS011;51113;53.646;-113.674;2022-07-29T06:35:46;12.07;;;2.80;;
64686;SDS011;51113;53.646;-113.674;2022-07-29T06:38:19;21.90;;;3.28;;
64686;SDS011;51113;53.646;-113.674;2022-07-29T06:41:00;15.02;;;3.05;;
64686;SDS011;51113;53.646;-113.674;2022-07-29T06:43:34;7.53;;;3.15;;
64686;SDS011;51113;53.646;-113.674;2022-07-29T06:46:19;14.93;;;3.22;;
64686;SDS011;51113;53.646;-113.674;2022-07-29T06:48:49;17.88;;;3.08;;
64686;SDS011;51113;53.646;-113.674;2022-07-29T06:51:19;9.00;;;2.80;;
64686;SDS011;51113;53.646;-113.674;2022-07-29T06:53:50;13.10;;;2.70;;
64686;SDS011;51113;53.646;-113.674;2022-07-29T06:56:24;23.48;;;4.13;;
64686;SDS011;51113;53.646;-113.674;2022-07-29T06:58:53;14.13;;;2.75;;
64686;SDS011;51113;53.646;-113.674;2022-07-29T07:01:21;23.20;;;3.45;;
64686;SDS011;51113;53.646;-113.674;2022-07-29T07:03:50;23.45;;;3.20;;
64686;SDS011;51113;53.646;-113.674;2022-07-29T07:06:19;14.35;;;3.80;;
64686;SDS011;51113;53.646;-113.674;2022-07-29T07:08:48;11.10;;;2.55;;
64686;SDS011;51113;53.646;-113.674;2022-07-29T07:11:16;9.48;;;3.03;;
64686;SDS011;51113;53.646;-113.674;2022-07-29T07:13:45;13.77;;;3.20;;
64686;SDS011;51113;53.646;-113.674;2022-07-29T07:16:13;11.85;;;3.03;;
64686;SDS011;51113;53.646;-113.674;2022-07-29T07:18:42;12.00;;;3.42;;
64686;SDS011;51113;53.646;-113.674;2022-07-29T07:21:12;14.80;;;3.55;;
64686;SDS011;51113;53.646;-113.674;2022-07-29T07:23:44;14.45;;;3.13;;
64686;SDS011;51113;53.646;-113.674;2022-07-29T07:26:13;11.80;;;2.97;;
64686;SDS011;51113;53.646;-113.674;2022-07-29T07:28:42;15.07;;;4.03;;
64686;SDS011;51113;53.646;-113.674;2022-07-29T07:31:11;6.75;;;3.50;;
64686;SDS011;51113;53.646;-113.674;2022-07-29T07:33:40;14.98;;;3.58;;
64686;SDS011;51113;53.646;-113.674;2022-07-29T07:36:09;18.30;;;3.55;;
64686;SDS011;51113;53.646;-113.674;2022-07-29T07:38:38;20.00;;;3.72;;
64686;SDS011;51113;53.646;-113.674;2022-07-29T07:41:06;14.68;;;3.67;;
64686;SDS011;51113;53.646;-113.674;2022-07-29T07:43:35;14.90;;;3.60;;
64686;SDS011;51113;53.646;-113.674;2022-07-29T07:46:04;16.08;;;3.63;;
64686;SDS011;51113;53.646;-113.674;2022-07-29T07:48:34;12.60;;;3.45;;
64686;SDS011;51113;53.646;-113.674;2022-07-29T07:51:24;15.13;;;3.55;;
64686;SDS011;51113;53.646;-113.674;2022-07-29T07:53:53;15.30;;;3.10;;
64686;SDS011;51113;53.646;-113.674;2022-07-29T07:56:23;16.55;;;3.78;;
64686;SDS011;51113;53.646;-113.674;2022-07-29T07:58:51;21.77;;;3.13;;
64686;SDS011;51113;53.646;-113.674;2022-07-29T08:01:20;16.02;;;3.03;;
64686;SDS011;51113;53.646;-113.674;2022-07-29T08:03:50;19.77;;;4.05;;
64686;SDS011;51113;53.646;-113.674;2022-07-29T08:06:19;12.27;;;3.50;;
64686;SDS011;51113;53.646;-113.674;2022-07-29T08:08:48;23.48;;;3.63;;
64686;SDS011;51113;53.646;-113.674;2022-07-29T08:11:17;13.10;;;3.40;;
64686;SDS011;51113;53.646;-113.674;2022-07-29T08:13:46;19.20;;;3.47;;
64686;SDS011;51113;53.646;-113.674;2022-07-29T08:16:15;18.65;;;4.55;;
64686;SDS011;51113;53.646;-113.674;2022-07-29T08:18:44;10.15;;;3.67;;
64686;SDS011;51113;53.646;-113.674;2022-07-29T08:21:14;15.40;;;3.40;;
64686;SDS011;51113;53.646;-113.674;2022-07-29T08:23:44;17.13;;;3.53;;
64686;SDS011;51113;53.646;-113.674;2022-07-29T08:26:24;12.63;;;3.28;;
64686;SDS011;51113;53.646;-113.674;2022-07-29T08:28:53;14.93;;;3.58;;
64686;SDS011;51113;53.646;-113.674;2022-07-29T08:31:22;13.43;;;3.33;;
64686;SDS011;51113;53.646;-113.674;2022-07-29T08:33:50;25.38;;;3.92;;
64686;SDS011;51113;53.646;-113.674;2022-07-29T08:36:19;22.60;;;3.65;;
64686;SDS011;51113;53.646;-113.674;2022-07-29T08:38:48;17.42;;;3.65;;
64686;SDS011;51113;53.646;-113.674;2022-07-29T08:41:17;12.98;;;3.78;;
64686;SDS011;51113;53.646;-113.674;2022-07-29T08:43:47;26.02;;;4.00;;
64686;SDS011;51113;53.646;-113.674;2022-07-29T08:46:17;10.82;;;3.38;;
64686;SDS011;51113;53.646;-113.674;2022-07-29T08:48:46;10.60;;;4.20;;
64686;SDS011;51113;53.646;-113.674;2022-07-29T08:51:16;20.00;;;3.80;;
64686;SDS011;51113;53.646;-113.674;2022-07-29T08:53:47;12.38;;;4.00;;
64686;SDS011;51113;53.646;-113.674;2022-07-29T08:56:17;17.55;;;3.67;;
64686;SDS011;51113;53.646;-113.674;2022-07-29T08:58:47;16.33;;;4.05;;
64686;SDS011;51113;53.646;-113.674;2022-07-29T09:01:23;20.27;;;3.40;;
64686;SDS011;51113;53.646;-113.674;2022-07-29T09:04:05;16.13;;;3.72;;
64686;SDS011;51113;53.646;-113.674;2022-07-29T09:06:40;14.10;;;3.95;;
64686;SDS011;51113;53.646;-113.674;2022-07-29T09:09:13;18.20;;;3.75;;
64686;SDS011;51113;53.646;-113.674;2022-07-29T09:11:42;14.30;;;3.70;;
64686;SDS011;51113;53.646;-113.674;2022-07-29T09:14:12;14.55;;;3.58;;
64686;SDS011;51113;53.646;-113.674;2022-07-29T09:16:45;14.52;;;3.58;;
64686;SDS011;51113;53.646;-113.674;2022-07-29T09:19:23;16.92;;;3.65;;
64686;SDS011;51113;53.646;-113.674;2022-07-29T09:21:56;19.48;;;4.15;;
64686;SDS011;51113;53.646;-113.674;2022-07-29T09:27:21;9.48;;;3.75;;
64686;SDS011;51113;53.646;-113.674;2022-07-29T09:29:57;22.05;;;4.07;;
64686;SDS011;51113;53.646;-113.674;2022-07-29T09:32:27;12.55;;;4.03;;
64686;SDS011;51113;53.646;-113.674;2022-07-29T09:35:18;22.15;;;4.40;;
64686;SDS011;51113;53.646;-113.674;2022-07-29T09:42:52;25.15;;;4.32;;
64686;SDS011;51113;53.646;-113.674;2022-07-29T09:45:28;22.23;;;4.38;;
64686;SDS011;51113;53.646;-113.674;2022-07-29T09:47:59;20.17;;;4.70;;
64686;SDS011;51113;53.646;-113.674;2022-07-29T09:50:42;13.52;;;3.67;;
64686;SDS011;51113;53.646;-113.674;2022-07-29T09:53:12;28.35;;;3.65;;
64686;SDS011;51113;53.646;-113.674;2022-07-29T09:55:58;17.98;;;4.47;;
64686;SDS011;51113;53.646;-113.674;2022-07-29T09:58:27;18.67;;;4.10;;
64686;SDS011;51113;53.646;-113.674;2022-07-29T10:00:56;11.32;;;4.10;;
64686;SDS011;51113;53.646;-113.674;2022-07-29T10:03:25;22.65;;;4.20;;
64686;SDS011;51113;53.646;-113.674;2022-07-29T10:06:10;17.60;;;4.60;;
64686;SDS011;51113;53.646;-113.674;2022-07-29T10:08:41;17.08;;;4.80;;
64686;SDS011;51113;53.646;-113.674;2022-07-29T10:16:12;10.27;;;4.00;;
64686;SDS011;51113;53.646;-113.674;2022-07-29T10:18:42;16.08;;;4.07;;
64686;SDS011;51113;53.646;-113.674;2022-07-29T10:21:11;9.93;;;4.57;;
64686;SDS011;51113;53.646;-113.674;2022-07-29T10:24:00;13.50;;;3.83;;
64686;SDS011;51113;53.646;-113.674;2022-07-29T10:26:29;12.52;;;4.20;;
64686;SDS011;51113;53.646;-113.674;2022-07-29T10:28:58;12.85;;;4.20;;
64686;SDS011;51113;53.646;-113.674;2022-07-29T10:43:24;21.77;;;5.20;;
64686;SDS011;51113;53.646;-113.674;2022-07-29T10:45:58;13.10;;;4.55;;
64686;SDS011;51113;53.646;-113.674;2022-07-29T10:48:32;12.60;;;4.82;;
64686;SDS011;51113;53.646;-113.674;2022-07-29T10:51:04;8.53;;;3.77;;
64686;SDS011;51113;53.646;-113.674;2022-07-29T11:01:49;12.75;;;4.60;;
64686;SDS011;51113;53.646;-113.674;2022-07-29T11:07:33;7.38;;;4.20;;
64686;SDS011;51113;53.646;-113.674;2022-07-29T11:12:46;13.20;;;4.90;;
64686;SDS011;51113;53.646;-113.674;2022-07-29T11:15:16;17.85;;;4.47;;
64686;SDS011;51113;53.646;-113.674;2022-07-29T11:20:41;12.45;;;4.85;;
64686;SDS011;51113;53.646;-113.674;2022-07-29T11:23:30;14.65;;;4.30;;
64686;SDS011;51113;53.646;-113.674;2022-07-29T11:29:03;13.90;;;5.03;;
64686;SDS011;51113;53.646;-113.674;2022-07-29T11:31:33;16.23;;;6.32;;
64686;SDS011;51113;53.646;-113.674;2022-07-29T11:42:38;14.57;;;6.30;;
64686;SDS011;51113;53.646;-113.674;2022-07-29T11:45:11;16.98;;;6.20;;
64686;SDS011;51113;53.646;-113.674;2022-07-29T11:48:05;18.45;;;6.68;;
64686;SDS011;51113;53.646;-113.674;2022-07-29T11:50:55;15.85;;;7.70;;
64686;SDS011;51113;53.646;-113.674;2022-07-29T11:53:25;22.70;;;7.30;;
64686;SDS011;51113;53.646;-113.674;2022-07-29T11:55:54;12.23;;;6.88;;
64686;SDS011;51113;53.646;-113.674;2022-07-29T11:58:24;18.23;;;7.20;;
64686;SDS011;51113;53.646;-113.674;2022-07-29T12:00:53;19.70;;;6.80;;
64686;SDS011;51113;53.646;-113.674;2022-07-29T12:03:26;16.58;;;6.22;;
64686;SDS011;51113;53.646;-113.674;2022-07-29T12:06:02;18.63;;;7.82;;
64686;SDS011;51113;53.646;-113.674;2022-07-29T12:08:46;15.73;;;6.95;;
64686;SDS011;51113;53.646;-113.674;2022-07-29T12:11:16;14.85;;;6.82;;
64686;SDS011;51113;53.646;-113.674;2022-07-29T12:13:47;16.80;;;5.53;;
64686;SDS011;51113;53.646;-113.674;2022-07-29T12:16:16;14.63;;;6.70;;
64686;SDS011;51113;53.646;-113.674;2022-07-29T12:19:01;15.57;;;5.85;;
64686;SDS011;51113;53.646;-113.674;2022-07-29T12:21:44;15.00;;;6.13;;
64686;SDS011;51113;53.646;-113.674;2022-07-29T12:24:22;11.20;;;5.50;;
64686;SDS011;51113;53.646;-113.674;2022-07-29T12:26:56;16.83;;;5.07;;
64686;SDS011;51113;53.646;-113.674;2022-07-29T12:29:27;22.50;;;5.50;;
64686;SDS011;51113;53.646;-113.674;2022-07-29T12:32:01;20.25;;;5.10;;
64686;SDS011;51113;53.646;-113.674;2022-07-29T12:34:40;11.65;;;5.28;;
64686;SDS011;51113;53.646;-113.674;2022-07-29T12:37:09;14.50;;;5.05;;
64686;SDS011;51113;53.646;-113.674;2022-07-29T12:39:38;12.63;;;4.82;;
64686;SDS011;51113;53.646;-113.674;2022-07-29T12:42:11;19.88;;;5.65;;
64686;SDS011;51113;53.646;-113.674;2022-07-29T12:44:47;12.90;;;5.07;;
64686;SDS011;51113;53.646;-113.674;2022-07-29T12:47:18;19.25;;;5.00;;
64686;SDS011;51113;53.646;-113.674;2022-07-29T12:49:47;22.48;;;5.18;;
64686;SDS011;51113;53.646;-113.674;2022-07-29T12:52:30;14.23;;;5.25;;
64686;SDS011;51113;53.646;-113.674;2022-07-29T12:55:00;12.25;;;5.03;;
64686;SDS011;51113;53.646;-113.674;2022-07-29T12:57:30;10.48;;;5.00;;
64686;SDS011;51113;53.646;-113.674;2022-07-29T13:00:00;18.48;;;4.88;;
64686;SDS011;51113;53.646;-113.674;2022-07-29T13:02:31;15.35;;;5.43;;
64686;SDS011;51113;53.646;-113.674;2022-07-29T13:05:03;14.90;;;5.13;;
64686;SDS011;51113;53.646;-113.674;2022-07-29T13:07:34;11.48;;;5.00;;
64686;SDS011;51113;53.646;-113.674;2022-07-29T13:10:21;22.20;;;5.40;;
64686;SDS011;51113;53.646;-113.674;2022-07-29T13:15:31;12.10;;;5.43;;
64686;SDS011;51113;53.646;-113.674;2022-07-29T13:18:01;16.95;;;5.45;;
64686;SDS011;51113;53.646;-113.674;2022-07-29T13:20:31;12.27;;;5.53;;
64686;SDS011;51113;53.646;-113.674;2022-07-29T13:23:00;18.70;;;5.72;;
64686;SDS011;51113;53.646;-113.674;2022-07-29T13:25:30;9.85;;;4.97;;
64686;SDS011;51113;53.646;-113.674;2022-07-29T13:27:59;13.82;;;5.13;;
64686;SDS011;51113;53.646;-113.674;2022-07-29T13:30:28;15.52;;;5.10;;
64686;SDS011;51113;53.646;-113.674;2022-07-29T13:32:57;17.55;;;5.38;;
64686;SDS011;51113;53.646;-113.674;2022-07-29T13:35:25;27.58;;;5.55;;
64686;SDS011;51113;53.646;-113.674;2022-07-29T13:37:57;15.03;;;4.73;;
64686;SDS011;51113;53.646;-113.674;2022-07-29T13:40:29;18.15;;;5.57;;
64686;SDS011;51113;53.646;-113.674;2022-07-29T13:42:57;22.25;;;5.07;;
64686;SDS011;51113;53.646;-113.674;2022-07-29T13:45:26;16.77;;;4.95;;
64686;SDS011;51113;53.646;-113.674;2022-07-29T13:47:55;18.95;;;5.22;;
64686;SDS011;51113;53.646;-113.674;2022-07-29T13:50:23;20.83;;;5.00;;
64686;SDS011;51113;53.646;-113.674;2022-07-29T13:52:52;26.02;;;6.00;;
64686;SDS011;51113;53.646;-113.674;2022-07-29T13:55:21;16.38;;;4.72;;
64686;SDS011;51113;53.646;-113.674;2022-07-29T13:57:50;15.52;;;4.60;;
64686;SDS011;51113;53.646;-113.674;2022-07-29T14:00:19;18.98;;;4.97;;
64686;SDS011;51113;53.646;-113.674;2022-07-29T14:02:48;10.07;;;4.70;;
64686;SDS011;51113;53.646;-113.674;2022-07-29T14:05:17;18.08;;;4.80;;
64686;SDS011;51113;53.646;-113.674;2022-07-29T14:07:46;8.50;;;4.40;;
64686;SDS011;51113;53.646;-113.674;2022-07-29T14:10:14;18.17;;;5.20;;
64686;SDS011;51113;53.646;-113.674;2022-07-29T14:12:45;16.52;;;4.88;;
64686;SDS011;51113;53.646;-113.674;2022-07-29T14:15:14;23.85;;;4.85;;
64686;SDS011;51113;53.646;-113.674;2022-07-29T14:17:42;11.38;;;4.68;;
64686;SDS011;51113;53.646;-113.674;2022-07-29T14:20:11;11.35;;;4.75;;
64686;SDS011;51113;53.646;-113.674;2022-07-29T14:22:39;8.23;;;4.53;;
64686;SDS011;51113;53.646;-113.674;2022-07-29T14:25:11;15.52;;;4.65;;
64686;SDS011;51113;53.646;-113.674;2022-07-29T14:27:42;13.80;;;4.70;;
64686;SDS011;51113;53.646;-113.674;2022-07-29T14:30:11;16.33;;;4.88;;
64686;SDS011;51113;53.646;-113.674;2022-07-29T14:32:43;8.90;;;4.60;;
64686;SDS011;51113;53.646;-113.674;2022-07-29T14:35:11;14.57;;;5.05;;
64686;SDS011;51113;53.646;-113.674;2022-07-29T14:37:40;9.60;;;4.35;;
64686;SDS011;51113;53.646;-113.674;2022-07-29T14:40:09;14.32;;;4.47;;
64686;SDS011;51113;53.646;-113.674;2022-07-29T14:42:38;11.18;;;4.38;;
64686;SDS011;51113;53.646;-113.674;2022-07-29T14:45:08;14.40;;;4.80;;
64686;SDS011;51113;53.646;-113.674;2022-07-29T14:47:37;18.10;;;4.38;;
64686;SDS011;51113;53.646;-113.674;2022-07-29T14:50:07;13.85;;;4.78;;
64686;SDS011;51113;53.646;-113.674;2022-07-29T14:52:36;19.15;;;4.80;;
64686;SDS011;51113;53.646;-113.674;2022-07-29T14:55:05;15.23;;;4.65;;
64686;SDS011;51113;53.646;-113.674;2022-07-29T14:57:45;15.00;;;4.60;;
64686;SDS011;51113;53.646;-113.674;2022-07-29T15:00:15;13.80;;;5.07;;
64686;SDS011;51113;53.646;-113.674;2022-07-29T15:02:44;9.82;;;4.35;;
64686;SDS011;51113;53.646;-113.674;2022-07-29T15:05:28;16.42;;;4.57;;
64686;SDS011;51113;53.646;-113.674;2022-07-29T15:07:57;11.15;;;4.10;;
64686;SDS011;51113;53.646;-113.674;2022-07-29T15:10:26;14.23;;;4.72;;
64686;SDS011;51113;53.646;-113.674;2022-07-29T15:12:55;16.10;;;4.60;;
64686;SDS011;51113;53.646;-113.674;2022-07-29T15:15:25;10.70;;;4.70;;
64686;SDS011;51113;53.646;-113.674;2022-07-29T15:17:53;9.88;;;4.47;;
64686;SDS011;51113;53.646;-113.674;2022-07-29T15:20:22;13.18;;;4.50;;
64686;SDS011;51113;53.646;-113.674;2022-07-29T15:22:53;14.60;;;5.47;;
64686;SDS011;51113;53.646;-113.674;2022-07-29T15:25:26;20.63;;;4.85;;
64686;SDS011;51113;53.646;-113.674;2022-07-29T15:27:54;12.45;;;5.10;;
64686;SDS011;51113;53.646;-113.674;2022-07-29T15:33:00;24.33;;;5.95;;
64686;SDS011;51113;53.646;-113.674;2022-07-29T15:35:31;17.90;;;4.93;;
64686;SDS011;51113;53.646;-113.674;2022-07-29T15:38:06;9.23;;;5.00;;
64686;SDS011;51113;53.646;-113.674;2022-07-29T15:40:36;13.75;;;4.88;;
64686;SDS011;51113;53.646;-113.674;2022-07-29T15:43:08;15.60;;;4.80;;
64686;SDS011;51113;53.646;-113.674;2022-07-29T15:45:38;13.60;;;4.97;;
64686;SDS011;51113;53.646;-113.674;2022-07-29T15:48:08;11.23;;;5.22;;